Time;durP1;ratioP1;P1;durP2;ratioP2;P2;SDS_P1;SDS_P2;PMS_P1;PMS_P2;Temp;Humidity;BMP_temperature;BMP_pressure;BME280_temperature;BME280_humidity;BME280_pressure;Samples;Min_cycle;Max_cycle;Signal;HPM_P1;HPM_P2
2023/11/16 00:02:49;;;;;;;8.52;5.95;;;;;;;;;;12818701;22;20037;-70
2023/11/16 00:07:46;;;;;;;9.63;5.45;;;;;;;;;;12818400;22;20023;-69
2023/11/16 00:12:42;;;;;;;8.05;5.75;;;;;;;;;;12817060;22;20030;-70
2023/11/16 00:17:39;;;;;;;11.63;7.40;;;;;;;;;;12817302;22;20368;-69
2023/11/16 00:22:38;;;;;;;11.35;6.40;;;;;;;;;;12818562;22;20542;-68
2023/11/16 00:27:34;;;;;;;13.30;7.25;;;;;;;;;;12790394;22;20031;-70
2023/11/16 00:32:32;;;;;;;11.20;6.40;;;;;;;;;;12817766;22;20073;-67
2023/11/16 00:37:29;;;;;;;10.90;6.47;;;;;;;;;;12791022;22;20026;-69
2023/11/16 00:42:28;;;;;;;16.27;6.07;;;;;;;;;;12815173;22;20027;-67
2023/11/16 00:47:24;;;;;;;13.93;6.05;;;;;;;;;;12812712;22;20539;-68
2023/11/16 00:52:21;;;;;;;14.32;5.85;;;;;;;;;;12811294;22;20030;-68
2023/11/16 00:57:21;;;;;;;14.82;5.63;;;;;;;;;;12818004;22;20513;-68
2023/11/16 01:02:18;;;;;;;12.13;5.80;;;;;;;;;;12817690;22;20024;-67
2023/11/16 01:07:14;;;;;;;8.02;5.75;;;;;;;;;;12821515;22;20491;-68
2023/11/16 01:12:15;;;;;;;11.95;6.18;;;;;;;;;;12820777;22;20027;-67
2023/11/16 01:17:18;;;;;;;15.80;6.63;;;;;;;;;;12821229;22;20027;-69
2023/11/16 01:22:16;;;;;;;10.13;5.85;;;;;;;;;;12793707;22;20081;-69
2023/11/16 01:27:17;;;;;;;14.50;5.35;;;;;;;;;;12821306;22;20456;-69
2023/11/16 01:32:14;;;;;;;12.32;5.75;;;;;;;;;;12820974;22;20037;-68
2023/11/16 01:37:11;;;;;;;11.10;5.50;;;;;;;;;;12824561;22;20023;-68
2023/11/16 01:42:09;;;;;;;11.95;5.97;;;;;;;;;;12825375;22;20051;-69
2023/11/16 01:47:08;;;;;;;10.48;4.55;;;;;;;;;;12796731;22;20559;-71
2023/11/16 01:52:06;;;;;;;9.52;5.30;;;;;;;;;;12811911;22;20047;-70
2023/11/16 01:57:03;;;;;;;9.55;5.68;;;;;;;;;;12823928;22;20096;-70
2023/11/16 02:02:01;;;;;;;14.35;5.57;;;;;;;;;;12821185;22;20027;-69
2023/11/16 02:06:58;;;;;;;13.57;5.40;;;;;;;;;;12845142;22;20024;-67
2023/11/16 02:11:54;;;;;;;11.18;5.10;;;;;;;;;;12823544;22;20027;-67
2023/11/16 02:16:50;;;;;;;10.13;4.72;;;;;;;;;;12794800;22;20027;-68
2023/11/16 02:21:48;;;;;;;10.02;4.05;;;;;;;;;;12823726;22;20027;-69
2023/11/16 02:26:44;;;;;;;7.30;3.55;;;;;;;;;;12822979;22;20034;-67
2023/11/16 02:31:41;;;;;;;6.90;3.33;;;;;;;;;;12822354;22;20034;-67
2023/11/16 02:36:37;;;;;;;8.45;4.15;;;;;;;;;;12823804;22;20023;-67
2023/11/16 02:41:34;;;;;;;7.88;3.90;;;;;;;;;;12822609;22;20023;-68
2023/11/16 02:46:31;;;;;;;7.25;4.10;;;;;;;;;;12823232;22;20029;-68
2023/11/16 02:51:27;;;;;;;9.35;4.18;;;;;;;;;;12822486;22;20058;-68
2023/11/16 02:56:24;;;;;;;11.38;4.13;;;;;;;;;;12817130;22;20051;-71
2023/11/16 03:01:20;;;;;;;5.35;3.85;;;;;;;;;;12820548;22;20027;-72
2023/11/16 03:06:16;;;;;;;10.05;3.80;;;;;;;;;;12817569;22;20024;-68
2023/11/16 03:11:13;;;;;;;6.70;3.63;;;;;;;;;;12821704;22;20058;-70
2023/11/16 03:16:10;;;;;;;4.63;3.15;;;;;;;;;;12822651;22;20338;-69
2023/11/16 03:21:06;;;;;;;5.97;3.63;;;;;;;;;;12821634;22;20027;-72
2023/11/16 03:26:05;;;;;;;10.98;3.50;;;;;;;;;;12819667;22;20033;-72
2023/11/16 03:31:05;;;;;;;6.63;4.13;;;;;;;;;;12819902;22;20636;-70
2023/11/16 03:36:01;;;;;;;4.75;3.58;;;;;;;;;;12822166;22;20116;-71
2023/11/16 03:40:58;;;;;;;6.85;4.03;;;;;;;;;;12793826;22;20031;-70
2023/11/16 03:45:54;;;;;;;4.70;3.35;;;;;;;;;;12821766;22;20558;-69
2023/11/16 03:50:52;;;;;;;3.47;2.92;;;;;;;;;;12794481;22;20027;-69
2023/11/16 03:55:48;;;;;;;3.80;2.50;;;;;;;;;;12816980;22;20015;-70
2023/11/16 04:00:44;;;;;;;3.83;2.40;;;;;;;;;;12821735;22;20019;-70
2023/11/16 04:05:41;;;;;;;3.80;2.72;;;;;;;;;;12819621;22;20045;-70
2023/11/16 04:10:37;;;;;;;3.15;2.55;;;;;;;;;;12820804;22;20406;-68
2023/11/16 04:15:34;;;;;;;3.40;2.90;;;;;;;;;;12821381;22;20026;-68
2023/11/16 04:20:30;;;;;;;5.60;3.60;;;;;;;;;;12820373;22;20019;-69
2023/11/16 04:25:28;;;;;;;4.72;2.70;;;;;;;;;;12819100;22;20025;-70
2023/11/16 04:30:26;;;;;;;2.65;2.40;;;;;;;;;;12786604;22;20058;-69
2023/11/16 04:35:23;;;;;;;2.95;2.50;;;;;;;;;;12820661;22;20060;-70
2023/11/16 04:40:21;;;;;;;2.95;2.42;;;;;;;;;;12820365;22;20033;-68
2023/11/16 04:45:18;;;;;;;3.38;2.40;;;;;;;;;;12825345;22;20034;-69
2023/11/16 04:50:16;;;;;;;2.60;2.40;;;;;;;;;;12825049;22;20015;-68
2023/11/16 04:55:13;;;;;;;5.68;2.92;;;;;;;;;;12825220;22;20023;-69
2023/11/16 05:00:13;;;;;;;3.72;2.83;;;;;;;;;;12819271;22;20023;-68
2023/11/16 05:05:10;;;;;;;3.20;2.83;;;;;;;;;;12826224;22;20341;-68
2023/11/16 05:10:10;;;;;;;3.55;2.80;;;;;;;;;;12825523;22;20015;-70
2023/11/16 05:15:06;;;;;;;3.20;2.90;;;;;;;;;;12796904;22;20019;-69
2023/11/16 05:20:04;;;;;;;6.53;3.33;;;;;;;;;;12823324;22;20024;-68
2023/11/16 05:25:00;;;;;;;3.72;3.25;;;;;;;;;;12822575;22;20020;-71
2023/11/16 05:29:56;;;;;;;3.97;3.10;;;;;;;;;;12819729;22;20015;-70
2023/11/16 05:34:54;;;;;;;3.75;3.38;;;;;;;;;;12815534;22;20338;-72
2023/11/16 05:39:51;;;;;;;3.83;3.35;;;;;;;;;;12822220;22;20411;-73
2023/11/16 05:44:48;;;;;;;4.13;3.60;;;;;;;;;;12821275;22;20042;-74
2023/11/16 05:49:44;;;;;;;5.72;3.63;;;;;;;;;;12823781;22;20019;-73
2023/11/16 05:54:41;;;;;;;3.08;2.78;;;;;;;;;;12795310;22;20460;-73
2023/11/16 05:59:37;;;;;;;3.85;3.00;;;;;;;;;;12808343;22;20065;-72
2023/11/16 06:04:33;;;;;;;3.45;3.10;;;;;;;;;;12820160;22;20027;-73
2023/11/16 06:09:30;;;;;;;4.32;3.65;;;;;;;;;;12822387;22;20034;-73
2023/11/16 06:14:31;;;;;;;4.20;3.80;;;;;;;;;;12821417;22;20027;-72
2023/11/16 06:19:42;;;;;;;4.75;4.35;;;;;;;;;;12822624;22;20077;-72
2023/11/16 06:24:40;;;;;;;8.00;3.83;;;;;;;;;;12820588;22;20026;-73
2023/11/16 06:29:36;;;;;;;4.30;3.90;;;;;;;;;;12816736;22;20110;-75
2023/11/16 06:34:34;;;;;;;4.68;3.83;;;;;;;;;;12816811;22;20697;-75
2023/11/16 06:39:31;;;;;;;4.20;3.80;;;;;;;;;;12819658;22;20031;-74
2023/11/16 06:44:27;;;;;;;3.67;3.30;;;;;;;;;;12787520;22;20189;-73
2023/11/16 06:49:26;;;;;;;3.72;3.42;;;;;;;;;;12817691;22;20414;-74
2023/11/16 06:54:23;;;;;;;4.70;3.75;;;;;;;;;;12818853;22;20026;-75
2023/11/16 06:59:24;;;;;;;3.92;3.58;;;;;;;;;;12814168;22;20023;-75
2023/11/16 07:04:21;;;;;;;4.82;4.30;;;;;;;;;;12784242;22;20031;-72
2023/11/16 07:09:17;;;;;;;6.90;3.60;;;;;;;;;;12821249;22;20095;-73
2023/11/16 07:14:14;;;;;;;4.00;3.70;;;;;;;;;;12794754;22;20031;-75
2023/11/16 07:19:12;;;;;;;3.83;3.50;;;;;;;;;;12817477;22;20129;-74
2023/11/16 07:24:11;;;;;;;3.60;3.30;;;;;;;;;;12843397;22;20069;-74
2023/11/16 07:29:08;;;;;;;3.72;3.42;;;;;;;;;;12821302;22;20468;-74
2023/11/16 07:34:04;;;;;;;4.32;3.53;;;;;;;;;;12791031;22;20015;-74
2023/11/16 07:39:01;;;;;;;3.95;3.65;;;;;;;;;;12817979;22;20031;-75
2023/11/16 07:43:57;;;;;;;3.70;3.40;;;;;;;;;;12821199;22;20037;-74
2023/11/16 07:48:54;;;;;;;3.90;3.50;;;;;;;;;;12821448;22;20081;-72
2023/11/16 07:53:53;;;;;;;3.58;3.22;;;;;;;;;;12819206;22;20417;-73
2023/11/16 07:58:52;;;;;;;4.10;3.67;;;;;;;;;;12821789;22;20031;-74
2023/11/16 08:03:55;;;;;;;4.25;3.85;;;;;;;;;;12822300;22;20486;-75
2023/11/16 08:08:52;;;;;;;4.32;4.00;;;;;;;;;;12821227;22;20054;-74
2023/11/16 08:13:48;;;;;;;3.83;3.50;;;;;;;;;;12815875;22;20030;-74
2023/11/16 08:18:45;;;;;;;5.40;3.92;;;;;;;;;;12793834;22;20023;-72
2023/11/16 08:23:43;;;;;;;4.65;4.25;;;;;;;;;;12818186;22;20369;-70
2023/11/16 08:28:47;;;;;;;5.03;4.13;;;;;;;;;;12794974;22;20019;-72
2023/11/16 08:33:44;;;;;;;4.78;4.28;;;;;;;;;;12820736;22;20073;-75
2023/11/16 08:38:45;;;;;;;4.70;4.22;;;;;;;;;;12822483;22;20035;-72
2023/11/16 08:43:42;;;;;;;4.40;4.00;;;;;;;;;;12814782;22;20023;-74
2023/11/16 08:48:43;;;;;;;5.00;4.50;;;;;;;;;;12821895;22;20027;-71
2023/11/16 08:53:42;;;;;;;4.78;4.28;;;;;;;;;;12819810;22;20026;-72
2023/11/16 08:58:41;;;;;;;4.40;4.00;;;;;;;;;;12821746;22;20031;-73
2023/11/16 09:03:37;;;;;;;5.10;4.45;;;;;;;;;;12820351;22;20038;-72
2023/11/16 09:08:36;;;;;;;4.25;3.85;;;;;;;;;;12820955;22;20027;-71
2023/11/16 09:13:33;;;;;;;4.32;3.92;;;;;;;;;;12819159;22;20496;-74
2023/11/16 09:18:29;;;;;;;5.53;3.92;;;;;;;;;;12820007;22;20361;-72
2023/11/16 09:23:26;;;;;;;4.20;3.80;;;;;;;;;;12793838;22;20419;-73
2023/11/16 09:28:22;;;;;;;4.93;3.97;;;;;;;;;;12823638;22;20027;-74
2023/11/16 09:33:18;;;;;;;4.05;3.75;;;;;;;;;;12821467;22;20098;-71
2023/11/16 09:38:15;;;;;;;4.38;3.97;;;;;;;;;;12817922;22;20031;-72
2023/11/16 09:43:20;;;;;;;4.45;4.03;;;;;;;;;;12822546;22;20158;-69
2023/11/16 09:48:20;;;;;;;4.22;3.83;;;;;;;;;;12812396;22;20024;-72
2023/11/16 09:53:17;;;;;;;5.45;4.22;;;;;;;;;;12820306;22;20058;-71
2023/11/16 09:58:17;;;;;;;4.80;4.40;;;;;;;;;;12821322;22;20027;-72
2023/11/16 10:03:16;;;;;;;4.90;4.50;;;;;;;;;;12824116;22;20027;-71
2023/11/16 10:08:14;;;;;;;4.65;4.25;;;;;;;;;;12823036;22;20023;-71
2023/11/16 10:13:12;;;;;;;4.45;4.05;;;;;;;;;;12797392;22;20023;-75
2023/11/16 10:18:10;;;;;;;4.40;4.00;;;;;;;;;;12824002;22;20069;-75
2023/11/16 10:23:07;;;;;;;4.28;3.88;;;;;;;;;;12823995;22;20020;-74
2023/11/16 10:28:14;;;;;;;4.13;3.80;;;;;;;;;;12824457;22;20024;-74
2023/11/16 10:33:11;;;;;;;4.43;4.07;;;;;;;;;;12796525;22;20509;-76
2023/11/16 10:38:07;;;;;;;4.15;3.83;;;;;;;;;;12823072;22;20106;-74
2023/11/16 10:43:05;;;;;;;4.50;4.10;;;;;;;;;;12821489;22;20102;-73
2023/11/16 10:48:02;;;;;;;4.38;3.97;;;;;;;;;;12823249;22;20023;-72
2023/11/16 10:53:01;;;;;;;4.45;4.05;;;;;;;;;;12815299;22;20023;-73
2023/11/16 10:58:03;;;;;;;4.50;4.10;;;;;;;;;;12819984;22;20077;-74
2023/11/16 11:03:01;;;;;;;3.95;3.60;;;;;;;;;;12813655;22;20027;-73
2023/11/16 11:07:58;;;;;;;3.70;3.40;;;;;;;;;;12821129;22;20023;-72
2023/11/16 11:13:00;;;;;;;4.45;4.03;;;;;;;;;;12820768;22;20049;-75
2023/11/16 11:17:58;;;;;;;5.00;3.30;;;;;;;;;;12821743;22;20413;-71
2023/11/16 11:23:02;;;;;;;3.80;3.50;;;;;;;;;;12820760;22;20027;-71
2023/11/16 11:27:58;;;;;;;5.00;4.50;;;;;;;;;;12820724;22;20015;-71
2023/11/16 11:32:57;;;;;;;3.88;3.58;;;;;;;;;;12817283;22;20025;-72
2023/11/16 11:38:19;;;;;;;4.28;3.92;;;;;;;;;;12821985;22;20041;-72
2023/11/16 11:43:21;;;;;;;4.37;3.97;;;;;;;;;;12822277;22;20041;-74
2023/11/16 11:48:18;;;;;;;4.32;3.53;;;;;;;;;;12819257;22;20074;-74
2023/11/16 11:53:16;;;;;;;3.47;3.17;;;;;;;;;;12822366;22;20023;-73
2023/11/16 11:58:12;;;;;;;4.30;3.90;;;;;;;;;;12814190;22;20026;-75
2023/11/16 12:03:11;;;;;;;7.20;3.30;;;;;;;;;;12819951;22;20077;-74
2023/11/16 12:08:09;;;;;;;4.10;3.70;;;;;;;;;;12814262;22;20027;-74
2023/11/16 12:13:10;;;;;;;3.90;3.60;;;;;;;;;;12818936;22;20368;-75
2023/11/16 12:18:07;;;;;;;6.47;4.10;;;;;;;;;;12793069;22;20085;-73
2023/11/16 12:23:05;;;;;;;4.18;3.78;;;;;;;;;;12792435;22;20038;-73
2023/11/16 12:28:04;;;;;;;4.25;3.33;;;;;;;;;;12793312;22;20080;-74
2023/11/16 12:33:00;;;;;;;4.63;3.30;;;;;;;;;;12820837;22;20029;-74
2023/11/16 12:37:57;;;;;;;4.03;3.72;;;;;;;;;;12793454;22;20134;-75
2023/11/16 12:42:55;;;;;;;3.90;3.50;;;;;;;;;;12820775;22;20360;-74
2023/11/16 12:47:51;;;;;;;3.75;3.45;;;;;;;;;;12820476;22;20047;-73
2023/11/16 12:52:48;;;;;;;3.50;3.15;;;;;;;;;;12819057;22;20027;-73
2023/11/16 12:57:48;;;;;;;3.58;3.28;;;;;;;;;;12819755;22;20546;-72
2023/11/16 13:02:44;;;;;;;3.25;2.95;;;;;;;;;;12822572;22;20023;-72
2023/11/16 13:07:41;;;;;;;3.35;2.80;;;;;;;;;;12825193;22;20371;-73
2023/11/16 13:12:37;;;;;;;3.65;3.30;;;;;;;;;;12817356;22;20035;-72
2023/11/16 13:17:34;;;;;;;3.08;2.78;;;;;;;;;;12823249;22;20073;-72
2023/11/16 13:22:31;;;;;;;3.00;2.45;;;;;;;;;;12797400;22;20058;-72
2023/11/16 13:27:27;;;;;;;3.42;2.90;;;;;;;;;;12822718;22;20030;-72
2023/11/16 13:32:38;;;;;;;3.58;3.20;;;;;;;;;;12822167;22;20027;-71
2023/11/16 13:37:36;;;;;;;3.55;2.75;;;;;;;;;;12824798;22;20058;-71
2023/11/16 13:42:33;;;;;;;4.75;2.90;;;;;;;;;;12823443;22;20069;-71
2023/11/16 13:47:31;;;;;;;3.67;2.63;;;;;;;;;;12820911;22;20094;-71
2023/11/16 13:52:27;;;;;;;3.05;2.70;;;;;;;;;;12823361;22;20027;-72
2023/11/16 13:57:24;;;;;;;3.55;2.60;;;;;;;;;;12823265;22;20027;-72
2023/11/16 14:02:21;;;;;;;5.05;3.90;;;;;;;;;;12824102;22;20058;-71
2023/11/16 14:07:19;;;;;;;5.25;3.20;;;;;;;;;;12821319;22;20021;-72
2023/11/16 14:12:15;;;;;;;2.92;2.63;;;;;;;;;;12823668;22;20022;-75
2023/11/16 14:17:13;;;;;;;2.92;2.60;;;;;;;;;;12813630;22;20029;-72
2023/11/16 14:22:10;;;;;;;3.22;2.90;;;;;;;;;;12823642;22;20062;-71
2023/11/16 14:27:08;;;;;;;3.20;2.78;;;;;;;;;;12824465;22;20106;-72
2023/11/16 14:32:04;;;;;;;4.32;3.30;;;;;;;;;;12824650;22;20360;-71
2023/11/16 14:37:04;;;;;;;4.22;3.08;;;;;;;;;;12823483;22;20027;-71
2023/11/16 14:42:00;;;;;;;3.10;2.80;;;;;;;;;;12823877;22;20019;-74
2023/11/16 14:46:57;;;;;;;3.30;3.00;;;;;;;;;;12824391;22;20019;-72
2023/11/16 14:51:54;;;;;;;3.20;2.90;;;;;;;;;;12823603;22;20331;-71
2023/11/16 14:56:51;;;;;;;3.92;3.20;;;;;;;;;;12822621;22;20031;-72
2023/11/16 15:01:48;;;;;;;3.00;2.70;;;;;;;;;;12821111;22;20140;-72
2023/11/16 15:06:45;;;;;;;3.83;3.20;;;;;;;;;;12820649;22;20481;-71
2023/11/16 15:11:42;;;;;;;3.42;3.05;;;;;;;;;;12819352;22;20132;-72
2023/11/16 15:16:48;;;;;;;3.50;3.20;;;;;;;;;;12817447;22;20346;-71
2023/11/16 15:21:45;;;;;;;8.63;3.65;;;;;;;;;;12820119;22;20023;-71
2023/11/16 15:26:41;;;;;;;3.80;3.47;;;;;;;;;;12815071;22;20027;-72
2023/11/16 15:31:46;;;;;;;3.92;3.28;;;;;;;;;;12821319;22;20015;-72
2023/11/16 15:36:42;;;;;;;3.90;3.13;;;;;;;;;;12821854;22;20019;-73
2023/11/16 15:41:39;;;;;;;3.60;3.30;;;;;;;;;;12816162;22;20368;-73
2023/11/16 15:46:35;;;;;;;3.70;3.40;;;;;;;;;;12811713;22;20084;-71
2023/11/16 15:51:32;;;;;;;3.70;3.40;;;;;;;;;;12814339;22;20053;-71
2023/11/16 15:56:29;;;;;;;5.32;3.72;;;;;;;;;;12821784;22;20023;-71
2023/11/16 16:01:26;;;;;;;4.50;4.10;;;;;;;;;;12822207;22;20023;-71
2023/11/16 16:06:24;;;;;;;4.15;3.75;;;;;;;;;;12820561;22;20026;-70
2023/11/16 16:11:23;;;;;;;10.13;4.88;;;;;;;;;;12822138;22;20031;-71
2023/11/16 16:16:19;;;;;;;4.80;4.18;;;;;;;;;;12820687;22;20365;-71
2023/11/16 16:21:16;;;;;;;3.90;3.50;;;;;;;;;;12821154;22;20435;-72
2023/11/16 16:26:13;;;;;;;5.18;3.83;;;;;;;;;;12815072;22;20183;-71
2023/11/16 16:31:15;;;;;;;4.10;3.70;;;;;;;;;;12840007;22;20395;-71
2023/11/16 16:36:12;;;;;;;6.47;5.05;;;;;;;;;;12792015;22;20023;-70
2023/11/16 16:41:10;;;;;;;4.80;4.30;;;;;;;;;;12819558;22;20030;-71
2023/11/16 16:46:21;;;;;;;4.60;4.20;;;;;;;;;;12821063;22;20394;-71
2023/11/16 16:51:18;;;;;;;6.85;4.93;;;;;;;;;;12820408;22;20061;-70
2023/11/16 16:56:14;;;;;;;5.88;4.95;;;;;;;;;;12822177;22;20755;-71
2023/11/16 17:01:11;;;;;;;5.32;4.20;;;;;;;;;;12819192;22;20561;-71
2023/11/16 17:06:08;;;;;;;4.47;4.07;;;;;;;;;;12807681;22;20589;-72
2023/11/16 17:11:04;;;;;;;4.22;3.72;;;;;;;;;;12816574;22;20027;-71
2023/11/16 17:16:01;;;;;;;4.25;3.85;;;;;;;;;;12813496;22;20050;-72
2023/11/16 17:20:57;;;;;;;4.25;3.53;;;;;;;;;;12816386;22;20546;-73
2023/11/16 17:25:54;;;;;;;4.75;4.15;;;;;;;;;;12812099;22;20023;-72
2023/11/16 17:30:50;;;;;;;5.07;4.57;;;;;;;;;;12816473;22;20034;-69
2023/11/16 17:35:46;;;;;;;6.18;4.80;;;;;;;;;;12816097;22;20023;-71
2023/11/16 17:40:43;;;;;;;6.07;4.68;;;;;;;;;;12815004;22;20477;-72
2023/11/16 17:45:39;;;;;;;5.07;3.88;;;;;;;;;;12818169;22;20027;-71
2023/11/16 17:50:36;;;;;;;7.53;4.50;;;;;;;;;;12820281;22;20027;-72
2023/11/16 17:55:33;;;;;;;4.53;4.10;;;;;;;;;;12816619;22;20072;-73
2023/11/16 18:00:30;;;;;;;4.93;4.18;;;;;;;;;;12820613;22;20081;-73
2023/11/16 18:05:27;;;;;;;5.82;4.13;;;;;;;;;;12821641;22;20015;-74
2023/11/16 18:10:23;;;;;;;4.60;3.90;;;;;;;;;;12819370;22;20023;-71
2023/11/16 18:15:20;;;;;;;6.00;4.63;;;;;;;;;;12782312;22;20030;-72
2023/11/16 18:20:16;;;;;;;7.72;5.28;;;;;;;;;;12783877;22;20449;-73
2023/11/16 18:25:15;;;;;;;6.18;5.25;;;;;;;;;;12817063;22;20076;-74
2023/11/16 18:30:13;;;;;;;4.68;4.28;;;;;;;;;;12812847;22;20019;-74
2023/11/16 18:35:12;;;;;;;4.57;3.97;;;;;;;;;;12817077;22;20015;-74
2023/11/16 18:40:09;;;;;;;10.10;6.07;;;;;;;;;;12807527;22;20027;-73
2023/11/16 18:45:07;;;;;;;5.50;4.43;;;;;;;;;;12810142;22;20030;-74
2023/11/16 18:50:03;;;;;;;5.43;3.50;;;;;;;;;;12813741;22;20023;-73
2023/11/16 18:55:00;;;;;;;4.30;3.90;;;;;;;;;;12815821;22;20384;-72
2023/11/16 18:59:56;;;;;;;6.75;4.30;;;;;;;;;;12822424;22;20027;-72
2023/11/16 19:04:59;;;;;;;4.35;3.78;;;;;;;;;;12820533;22;20080;-72
2023/11/16 19:09:56;;;;;;;7.00;4.57;;;;;;;;;;12832581;22;20015;-72
2023/11/16 19:14:54;;;;;;;5.88;4.18;;;;;;;;;;12833386;22;20580;-73
2023/11/16 19:19:53;;;;;;;5.28;4.20;;;;;;;;;;12805081;22;20019;-74
2023/11/16 19:24:50;;;;;;;4.13;3.30;;;;;;;;;;12833760;22;20049;-74
2023/11/16 19:29:47;;;;;;;3.85;3.45;;;;;;;;;;12824619;22;20046;-73
2023/11/16 19:34:44;;;;;;;6.55;4.68;;;;;;;;;;12832746;22;20023;-73
2023/11/16 19:39:42;;;;;;;6.55;4.18;;;;;;;;;;12800258;22;20026;-75
2023/11/16 19:44:40;;;;;;;5.47;4.10;;;;;;;;;;12822428;22;20136;-75
2023/11/16 19:49:37;;;;;;;4.85;3.80;;;;;;;;;;12818713;22;20055;-75
2023/11/16 19:54:33;;;;;;;6.28;4.60;;;;;;;;;;12796834;22;20069;-72
2023/11/16 19:59:30;;;;;;;4.85;4.22;;;;;;;;;;12825626;22;20407;-73
2023/11/16 20:04:27;;;;;;;3.78;3.47;;;;;;;;;;12825906;22;20023;-75
2023/11/16 20:09:24;;;;;;;4.00;3.60;;;;;;;;;;12825157;22;20019;-75
2023/11/16 20:14:22;;;;;;;4.10;3.70;;;;;;;;;;12823293;22;20629;-75
2023/11/16 20:19:18;;;;;;;3.65;3.28;;;;;;;;;;12822234;22;20089;-75
2023/11/16 20:24:14;;;;;;;6.18;3.58;;;;;;;;;;12822507;22;20019;-74
2023/11/16 20:29:11;;;;;;;5.05;3.60;;;;;;;;;;12784565;22;20393;-75
2023/11/16 20:34:12;;;;;;;8.65;4.20;;;;;;;;;;12809613;22;20019;-72
2023/11/16 20:39:10;;;;;;;5.20;3.55;;;;;;;;;;12815087;22;20373;-70
2023/11/16 20:44:06;;;;;;;3.95;3.55;;;;;;;;;;12815226;22;20019;-69
2023/11/16 20:49:04;;;;;;;7.85;5.05;;;;;;;;;;12809534;22;20019;-69
2023/11/16 20:54:04;;;;;;;5.57;4.10;;;;;;;;;;12814019;22;20808;-68
2023/11/16 20:59:00;;;;;;;4.25;3.20;;;;;;;;;;12819266;22;20019;-70
2023/11/16 21:03:58;;;;;;;6.95;3.60;;;;;;;;;;12813930;22;20102;-68
2023/11/16 21:08:55;;;;;;;4.00;3.60;;;;;;;;;;12819198;22;20334;-70
2023/11/16 21:13:51;;;;;;;4.47;3.28;;;;;;;;;;12818968;22;20480;-70
2023/11/16 21:18:47;;;;;;;3.40;3.10;;;;;;;;;;12819633;22;20050;-71
2023/11/16 21:23:44;;;;;;;3.65;3.35;;;;;;;;;;12821299;22;20089;-70
2023/11/16 21:28:41;;;;;;;4.57;3.42;;;;;;;;;;12824827;22;20019;-70
2023/11/16 21:33:37;;;;;;;4.53;3.80;;;;;;;;;;12823507;22;20520;-71
2023/11/16 21:38:34;;;;;;;5.88;4.82;;;;;;;;;;12824339;22;20028;-71
2023/11/16 21:43:31;;;;;;;5.22;4.00;;;;;;;;;;12791340;22;20364;-70
2023/11/16 21:48:28;;;;;;;7.65;4.63;;;;;;;;;;12823156;22;20019;-69
2023/11/16 21:53:24;;;;;;;5.30;4.47;;;;;;;;;;12823072;22;20046;-69
2023/11/16 21:58:20;;;;;;;4.90;4.25;;;;;;;;;;12824235;22;20492;-69
2023/11/16 22:03:17;;;;;;;5.25;4.20;;;;;;;;;;12823961;22;20046;-70
2023/11/16 22:08:14;;;;;;;3.97;3.53;;;;;;;;;;12823748;22;20115;-70
2023/11/16 22:13:10;;;;;;;5.70;4.70;;;;;;;;;;12823546;22;20383;-70
2023/11/16 22:18:07;;;;;;;8.55;4.25;;;;;;;;;;12817513;22;20134;-68
2023/11/16 22:23:04;;;;;;;3.78;3.25;;;;;;;;;;12822921;22;20130;-70
2023/11/16 22:28:00;;;;;;;5.20;3.58;;;;;;;;;;12824138;22;20020;-69
2023/11/16 22:32:59;;;;;;;3.67;3.35;;;;;;;;;;12823398;22;20394;-70
2023/11/16 22:37:56;;;;;;;4.95;3.47;;;;;;;;;;12822825;22;20027;-69
2023/11/16 22:42:53;;;;;;;3.78;3.35;;;;;;;;;;12818107;22;20027;-69
2023/11/16 22:47:50;;;;;;;3.63;3.28;;;;;;;;;;12796384;22;20476;-71
2023/11/16 22:52:46;;;;;;;3.65;2.85;;;;;;;;;;12822642;22;20029;-71
2023/11/16 22:57:42;;;;;;;3.95;3.30;;;;;;;;;;12795883;22;20483;-71
2023/11/16 23:02:39;;;;;;;4.00;2.92;;;;;;;;;;12823468;22;20499;-70
2023/11/16 23:07:39;;;;;;;3.70;3.30;;;;;;;;;;12823648;22;20024;-70
2023/11/16 23:12:35;;;;;;;4.22;3.30;;;;;;;;;;12822792;22;20016;-69
2023/11/16 23:17:31;;;;;;;4.03;3.28;;;;;;;;;;12823120;22;20023;-70
2023/11/16 23:22:31;;;;;;;3.83;2.90;;;;;;;;;;12823018;22;20025;-70
2023/11/16 23:27:28;;;;;;;3.78;3.13;;;;;;;;;;12816841;22;20081;-70
2023/11/16 23:32:24;;;;;;;5.28;3.50;;;;;;;;;;12821254;22;20490;-71
2023/11/16 23:37:21;;;;;;;3.50;3.20;;;;;;;;;;12822603;22;20023;-69
2023/11/16 23:42:17;;;;;;;3.70;2.60;;;;;;;;;;12821633;22;20027;-69
2023/11/16 23:47:14;;;;;;;3.83;3.08;;;;;;;;;;12816080;22;20469;-70
2023/11/16 23:52:12;;;;;;;3.58;2.88;;;;;;;;;;12820771;22;20023;-71
2023/11/16 23:57:08;;;;;;;3.55;3.08;;;;;;;;;;12820420;22;20077;-70
